createdAt,value
2023-05-10T15:45:32.430Z,4.67
2023-05-10T15:46:34.180Z,4.20
2023-05-10T15:47:36.027Z,5.07
2023-05-10T15:48:37.763Z,4.60
2023-05-10T15:49:39.513Z,3.95
2023-05-10T15:50:41.279Z,4.25
2023-05-10T15:51:43.066Z,5.50
2023-05-10T15:52:44.819Z,4.07
2023-05-10T15:54:05.322Z,4.20
2023-05-10T15:55:09.562Z,4.65
2023-05-10T15:56:11.615Z,3.83
2023-05-10T15:57:13.344Z,4.68
2023-05-10T15:58:15.144Z,4.13
2023-05-10T15:59:16.875Z,4.82
2023-05-10T16:00:18.865Z,4.72
2023-05-10T16:01:20.928Z,4.03
2023-05-10T16:02:22.897Z,5.35
2023-05-10T16:03:24.806Z,5.28
2023-05-10T16:04:26.671Z,4.82
2023-05-10T16:05:28.631Z,4.35
2023-05-10T16:06:30.343Z,4.13
2023-05-10T16:07:32.166Z,3.90
2023-05-10T16:08:33.900Z,4.30
2023-05-10T16:09:35.638Z,4.97
2023-05-10T16:10:37.454Z,4.47
2023-05-10T16:11:39.361Z,4.50
2023-05-10T16:12:41.363Z,5.07
2023-05-10T16:13:43.186Z,4.82
2023-05-10T16:14:44.936Z,4.60
2023-05-10T16:15:46.712Z,4.07
2023-05-10T16:16:48.877Z,4.23
2023-05-10T16:17:51.111Z,4.00
2023-05-10T16:18:53.172Z,4.63
2023-05-10T16:19:54.987Z,4.63
2023-05-10T16:20:56.945Z,4.32
2023-05-10T16:21:58.816Z,5.13
2023-05-10T16:23:05.345Z,5.05
2023-05-10T16:24:07.290Z,5.80
2023-05-10T16:25:11.019Z,5.30
2023-05-10T16:26:14.483Z,4.65
2023-05-10T16:27:16.176Z,6.30
2023-05-10T16:28:18.896Z,5.43
2023-05-10T16:29:20.771Z,4.78
2023-05-10T16:30:23.721Z,6.40
2023-05-10T16:31:26.036Z,5.47
2023-05-10T16:32:28.135Z,6.13
2023-05-10T16:33:30.038Z,5.32
2023-05-10T16:34:31.773Z,5.80
2023-05-10T16:35:33.595Z,5.25
2023-05-10T16:36:35.352Z,4.45
2023-05-10T16:37:37.152Z,5.03
2023-05-10T16:38:39.167Z,5.32
2023-05-10T16:39:40.911Z,5.07
2023-05-10T16:40:42.696Z,5.80
2023-05-10T16:41:44.424Z,6.68
2023-05-10T16:42:46.207Z,5.00
2023-05-10T16:43:47.979Z,5.70
2023-05-10T16:44:49.911Z,5.40
2023-05-10T16:45:51.639Z,5.45
2023-05-10T16:46:53.490Z,5.45
2023-05-10T16:47:55.569Z,5.80
2023-05-10T16:48:57.455Z,6.20
2023-05-10T16:49:59.376Z,5.25
2023-05-10T16:51:03.041Z,6.20
2023-05-10T16:52:04.813Z,5.78
2023-05-10T16:53:06.809Z,5.70
2023-05-10T16:54:08.594Z,6.05
2023-05-10T16:55:10.305Z,5.85
2023-05-10T16:56:12.145Z,6.35
2023-05-10T16:57:13.868Z,6.05
2023-05-10T16:58:16.000Z,5.70
2023-05-10T16:59:18.147Z,5.85
2023-05-10T17:00:20.351Z,7.78
2023-05-10T17:01:23.262Z,6.85
2023-05-10T17:02:27.154Z,5.68
2023-05-10T17:03:29.213Z,5.78
2023-05-10T17:04:31.156Z,5.28
2023-05-10T17:05:33.114Z,5.15
2023-05-10T17:06:36.088Z,6.70
2023-05-10T17:07:37.837Z,5.65
2023-05-10T17:08:39.675Z,5.43
2023-05-10T17:09:43.049Z,5.00
2023-05-10T17:10:44.806Z,5.97
2023-05-10T17:11:46.529Z,5.18
2023-05-10T17:12:48.353Z,5.20
2023-05-10T17:13:50.108Z,6.03
2023-05-10T17:14:51.898Z,5.00
2023-05-10T17:15:53.738Z,5.55
2023-05-10T17:16:55.673Z,5.10
2023-05-10T17:17:57.482Z,5.18
2023-05-10T17:18:59.297Z,5.63
2023-05-10T17:20:01.436Z,5.88
2023-05-10T17:21:03.265Z,5.75
2023-05-10T17:22:05.351Z,6.35
2023-05-10T17:23:07.110Z,5.95
2023-05-10T17:24:09.161Z,5.28
2023-05-10T17:25:11.191Z,6.45
2023-05-10T17:26:12.942Z,5.90
2023-05-10T17:27:14.983Z,5.60
2023-05-10T17:28:16.958Z,5.63
2023-05-10T17:29:18.857Z,5.10
2023-05-10T17:30:20.824Z,5.90
2023-05-10T17:31:22.759Z,8.15
2023-05-10T17:32:25.277Z,6.50
2023-05-10T17:33:26.991Z,7.90
2023-05-10T17:34:28.893Z,5.50
2023-05-10T17:35:30.694Z,6.05
2023-05-10T17:36:32.397Z,6.40
2023-05-10T17:37:34.554Z,6.80
2023-05-10T17:38:36.490Z,7.10
2023-05-10T17:39:39.981Z,6.97
2023-05-10T17:40:42.033Z,6.22
2023-05-10T17:41:43.856Z,6.35
2023-05-10T17:42:45.613Z,6.43
2023-05-10T17:43:47.365Z,6.03
2023-05-10T17:44:49.046Z,6.90
2023-05-10T17:45:50.881Z,7.07
2023-05-10T17:46:52.619Z,6.28
2023-05-10T17:47:54.546Z,7.65
2023-05-10T17:48:56.378Z,6.47
2023-05-10T17:49:58.144Z,6.70
2023-05-10T17:50:59.934Z,6.70
2023-05-10T17:52:01.651Z,5.50
2023-05-10T17:53:03.434Z,6.30
2023-05-10T17:54:05.193Z,6.53
2023-05-10T17:55:07.577Z,7.28
2023-05-10T17:56:09.420Z,8.25
2023-05-10T17:57:11.507Z,6.07
2023-05-10T17:58:13.888Z,6.30
2023-05-10T17:59:16.058Z,4.72
2023-05-10T18:00:17.928Z,5.40
2023-05-10T18:01:20.252Z,5.10
2023-05-10T18:02:22.011Z,5.47
2023-05-10T18:03:24.534Z,5.20
2023-05-10T18:04:26.569Z,5.43
2023-05-10T18:05:28.518Z,5.30
2023-05-10T18:06:30.379Z,5.10
2023-05-10T18:07:32.096Z,5.22
2023-05-10T18:08:33.872Z,6.82
2023-05-10T18:09:35.972Z,6.60
2023-05-10T18:10:39.963Z,6.07
2023-05-10T18:11:43.043Z,5.45
2023-05-10T18:12:44.917Z,5.57
2023-05-10T18:13:46.663Z,6.63
2023-05-10T18:14:48.521Z,6.53
2023-05-10T18:15:50.190Z,7.35
2023-05-10T18:16:52.107Z,7.70
2023-05-10T18:17:54.701Z,6.22
2023-05-10T18:18:58.433Z,6.20
2023-05-10T18:20:00.558Z,5.20
2023-05-10T18:21:02.429Z,6.03
2023-05-10T18:22:04.288Z,7.32
2023-05-10T18:23:06.060Z,6.93
2023-05-10T18:24:08.249Z,5.97
2023-05-10T18:25:10.606Z,6.22
2023-05-10T18:26:12.353Z,5.30
2023-05-10T18:27:14.056Z,5.57
2023-05-10T18:28:15.767Z,5.70
2023-05-10T18:29:17.738Z,5.07
2023-05-10T18:30:19.509Z,5.15
2023-05-10T18:31:21.842Z,5.30
2023-05-10T18:32:24.385Z,5.10
2023-05-10T18:33:26.323Z,5.90
2023-05-10T18:34:28.231Z,5.00
2023-05-10T18:35:30.089Z,5.63
2023-05-10T18:36:32.755Z,5.00
2023-05-10T18:37:38.721Z,6.00
2023-05-10T18:38:42.803Z,5.45
2023-05-10T18:39:46.335Z,6.07
2023-05-10T18:40:48.596Z,5.05
2023-05-10T18:41:52.900Z,5.80
2023-05-10T18:42:57.321Z,5.68
2023-05-10T18:44:02.170Z,6.15
2023-05-10T18:45:04.300Z,5.82
2023-05-10T18:46:06.177Z,5.53
2023-05-10T18:47:08.523Z,6.45
2023-05-10T18:48:10.801Z,6.47
2023-05-10T18:49:12.558Z,6.57
2023-05-10T18:50:14.459Z,6.65
2023-05-10T18:51:16.111Z,5.38
2023-05-10T18:52:17.863Z,6.33
2023-05-10T18:53:19.641Z,6.20
2023-05-10T18:54:21.351Z,5.90
2023-05-10T18:55:24.738Z,6.05
2023-05-10T18:56:26.501Z,5.60
2023-05-10T18:57:28.202Z,6.97
2023-05-10T18:58:30.094Z,7.10
2023-05-10T18:59:31.916Z,7.50
2023-05-10T19:00:33.630Z,6.57
2023-05-10T19:01:35.358Z,5.43
2023-05-10T19:02:40.653Z,6.07
2023-05-10T19:03:42.492Z,6.47
2023-05-10T19:04:44.997Z,6.70
2023-05-10T19:05:47.428Z,6.72
2023-05-10T19:06:49.260Z,6.75
2023-05-10T19:07:51.024Z,6.28
2023-05-10T19:08:53.102Z,6.50
2023-05-10T19:09:54.909Z,6.10
2023-05-10T19:10:56.565Z,5.60
2023-05-10T19:11:58.419Z,5.63
2023-05-10T19:13:00.164Z,5.83
2023-05-10T19:14:02.455Z,6.18
2023-05-10T19:15:04.678Z,6.13
2023-05-10T19:16:12.975Z,5.80
2023-05-10T19:17:15.256Z,6.18
2023-05-10T19:18:17.315Z,6.05
2023-05-10T19:19:20.637Z,6.35
2023-05-10T19:20:22.663Z,5.90
2023-05-10T19:21:25.961Z,5.75
2023-05-10T19:22:43.609Z,5.80
2023-05-10T19:23:50.954Z,5.93
2023-05-10T19:24:52.677Z,6.13
2023-05-10T19:25:54.499Z,7.10
2023-05-10T19:26:56.193Z,8.32
2023-05-10T19:27:58.277Z,7.40
2023-05-10T19:29:02.071Z,9.10
2023-05-10T19:30:04.497Z,8.18
2023-05-10T19:31:07.813Z,6.28
2023-05-10T19:32:09.944Z,7.60
2023-05-10T19:33:12.223Z,7.63
2023-05-10T19:34:14.439Z,7.67
2023-05-10T19:35:17.195Z,7.15
2023-05-10T19:36:19.377Z,7.15
2023-05-10T19:37:21.295Z,7.70
2023-05-10T19:38:24.204Z,7.30
2023-05-10T19:39:26.289Z,7.70
2023-05-10T19:40:28.013Z,7.45
2023-05-10T19:41:29.784Z,7.07
2023-05-10T19:42:31.639Z,7.32
2023-05-10T19:43:34.445Z,7.07
2023-05-10T19:44:36.750Z,6.80
2023-05-10T19:45:38.942Z,7.80
2023-05-10T19:46:40.746Z,7.38
2023-05-10T19:47:42.807Z,6.32
2023-05-10T19:48:46.740Z,7.22
2023-05-10T19:49:48.855Z,7.50
2023-05-10T19:50:51.986Z,7.30
2023-05-10T19:51:56.958Z,6.70
2023-05-10T19:53:02.027Z,7.28
2023-05-10T19:54:07.462Z,6.93
2023-05-10T19:55:15.435Z,6.83
2023-05-10T19:56:19.869Z,6.53
2023-05-10T19:57:24.558Z,6.80
2023-05-10T19:58:28.799Z,8.18
2023-05-10T19:59:32.173Z,7.85
2023-05-10T20:00:37.928Z,7.60
2023-05-10T20:01:42.416Z,9.10
2023-05-10T20:02:46.868Z,7.05
2023-05-10T20:03:51.796Z,7.10
2023-05-10T20:05:00.127Z,7.55
2023-05-10T20:06:05.376Z,7.60
2023-05-10T20:07:10.398Z,7.10
2023-05-10T20:08:14.525Z,7.18
2023-05-10T20:09:18.294Z,7.68
2023-05-10T20:10:25.250Z,6.80
2023-05-10T20:11:31.473Z,7.15
2023-05-10T20:12:39.354Z,7.30
2023-05-10T20:13:42.728Z,8.93
2023-05-10T20:14:44.663Z,6.20
2023-05-10T20:15:46.860Z,6.93
2023-05-10T20:16:48.633Z,7.30
2023-05-10T20:17:53.237Z,7.68
2023-05-10T20:18:55.102Z,7.65
2023-05-10T20:19:56.770Z,6.97
2023-05-10T20:21:00.275Z,6.95
2023-05-10T20:22:02.013Z,8.13
2023-05-10T20:23:03.887Z,7.68
2023-05-10T20:24:06.697Z,8.27
2023-05-10T20:25:09.010Z,7.85
2023-05-10T20:26:10.732Z,7.63
2023-05-10T20:27:12.385Z,7.93
2023-05-10T20:28:14.230Z,7.03
2023-05-10T20:29:16.402Z,6.38
2023-05-10T20:30:18.418Z,8.10
2023-05-10T20:31:20.738Z,7.80
2023-05-10T20:32:22.502Z,7.45
2023-05-10T20:33:24.957Z,8.07
2023-05-10T20:34:26.794Z,6.72
2023-05-10T20:35:28.533Z,6.95
2023-05-10T20:36:30.267Z,7.40
2023-05-10T20:37:32.002Z,7.80
2023-05-10T20:38:33.845Z,7.82
2023-05-10T20:39:35.722Z,8.52
2023-05-10T20:40:37.492Z,8.35
2023-05-10T20:41:39.220Z,7.38
2023-05-10T20:42:40.960Z,9.45
2023-05-10T20:43:42.726Z,8.60
2023-05-10T20:44:44.493Z,9.00
2023-05-10T20:45:46.385Z,8.27
2023-05-10T20:46:48.199Z,7.68
2023-05-10T20:47:49.968Z,8.67
2023-05-10T20:48:51.727Z,8.15
2023-05-10T20:49:53.475Z,8.23
2023-05-10T20:50:55.226Z,7.63
2023-05-10T20:51:57.251Z,7.90
2023-05-10T20:52:58.942Z,8.43
2023-05-10T20:54:00.717Z,8.10
2023-05-10T20:55:02.456Z,9.02
2023-05-10T20:56:04.229Z,8.70
2023-05-10T20:57:06.042Z,8.30
2023-05-10T20:58:07.820Z,7.97
2023-05-10T20:59:11.132Z,7.65
2023-05-10T21:00:14.322Z,8.02
2023-05-10T21:01:16.082Z,8.48
2023-05-10T21:02:17.925Z,8.05
2023-05-10T21:03:19.669Z,7.40
2023-05-10T21:04:21.500Z,8.68
2023-05-10T21:05:23.487Z,8.10
2023-05-10T21:06:25.296Z,7.45
2023-05-10T21:07:27.123Z,8.48
2023-05-10T21:08:28.926Z,7.87
2023-05-10T21:09:30.725Z,7.55
2023-05-10T21:10:32.460Z,7.43
2023-05-10T21:11:36.070Z,8.43
2023-05-10T21:12:37.945Z,7.97
2023-05-10T21:13:39.733Z,7.65
2023-05-10T21:14:41.486Z,8.43
2023-05-10T21:15:43.231Z,8.45
2023-05-10T21:16:45.085Z,7.53
2023-05-10T21:17:46.824Z,8.20
2023-05-10T21:18:48.514Z,8.10
2023-05-10T21:19:50.270Z,8.20
2023-05-10T21:20:52.293Z,8.80
2023-05-10T21:21:54.017Z,8.68
2023-05-10T21:22:55.719Z,9.00
2023-05-10T21:23:57.476Z,8.63
2023-05-10T21:24:59.283Z,8.00
2023-05-10T21:26:03.180Z,8.68
2023-05-10T21:27:04.970Z,8.18
2023-05-10T21:28:06.750Z,8.55
2023-05-10T21:29:08.626Z,7.80
2023-05-10T21:30:10.524Z,7.82
2023-05-10T21:31:12.414Z,9.05
2023-05-10T21:32:14.228Z,8.55
2023-05-10T21:33:15.883Z,9.13
2023-05-10T21:34:17.658Z,8.93
2023-05-10T21:35:19.290Z,8.52
2023-05-10T21:36:21.075Z,8.80
2023-05-10T21:37:22.835Z,8.00
2023-05-10T21:38:24.608Z,7.70
2023-05-10T21:39:26.321Z,8.60
2023-05-10T21:40:28.977Z,8.10
2023-05-10T21:41:30.735Z,8.75
2023-05-10T21:42:32.466Z,9.75
2023-05-10T21:43:34.271Z,9.07
2023-05-10T21:44:35.973Z,9.27
2023-05-10T21:45:38.117Z,10.75
2023-05-10T21:46:39.924Z,10.25
2023-05-10T21:47:41.638Z,8.80
2023-05-10T21:48:43.352Z,9.73
2023-05-10T21:49:45.171Z,9.33
2023-05-10T21:50:46.937Z,8.10
2023-05-10T21:51:48.716Z,8.40
2023-05-10T21:52:50.422Z,9.10
2023-05-10T21:53:52.152Z,9.10
2023-05-10T21:54:53.893Z,8.63
2023-05-10T21:55:56.343Z,10.57
2023-05-10T21:56:58.628Z,10.52
2023-05-10T21:58:00.279Z,9.07
2023-05-10T21:59:02.033Z,9.02
2023-05-10T22:00:04.003Z,9.87
2023-05-10T22:01:05.775Z,9.38
2023-05-10T22:02:07.672Z,9.43
2023-05-10T22:03:09.510Z,9.75
2023-05-10T22:04:11.479Z,8.60
2023-05-10T22:05:13.409Z,9.38
2023-05-10T22:06:15.235Z,8.70
2023-05-10T22:07:17.104Z,9.68
2023-05-10T22:08:19.077Z,10.20
2023-05-10T22:09:20.846Z,9.57
2023-05-10T22:10:22.682Z,9.23
2023-05-10T22:11:24.382Z,8.95
2023-05-10T22:12:26.821Z,8.10
2023-05-10T22:13:28.834Z,7.82
2023-05-10T22:14:30.729Z,8.82
2023-05-10T22:15:33.637Z,8.55
2023-05-10T22:16:37.353Z,8.05
2023-05-10T22:17:40.145Z,9.40
2023-05-10T22:18:43.217Z,7.88
2023-05-10T22:19:45.019Z,7.88
2023-05-10T22:20:46.831Z,8.17
2023-05-10T22:21:48.528Z,8.27
2023-05-10T22:22:50.339Z,8.60
2023-05-10T22:23:52.018Z,8.88
2023-05-10T22:24:53.714Z,8.07
2023-05-10T22:26:00.232Z,7.93
2023-05-10T22:27:02.661Z,8.15
2023-05-10T22:28:04.726Z,7.78
2023-05-10T22:29:06.611Z,8.68
2023-05-10T22:30:09.110Z,8.70
2023-05-10T22:31:11.473Z,8.20
2023-05-10T22:32:13.344Z,8.52
2023-05-10T22:33:15.119Z,8.80
2023-05-10T22:34:16.920Z,8.65
2023-05-10T22:35:18.657Z,7.38
2023-05-10T22:36:20.396Z,8.45
2023-05-10T22:37:22.082Z,7.20
2023-05-10T22:38:23.872Z,7.60
2023-05-10T22:39:25.667Z,7.03
2023-05-10T22:40:27.359Z,8.07
2023-05-10T22:41:29.265Z,7.97
2023-05-10T22:42:30.966Z,8.05
2023-05-10T22:43:32.841Z,8.98
2023-05-10T22:44:34.631Z,7.43
2023-05-10T22:45:36.382Z,9.60
2023-05-10T22:46:38.533Z,8.38
2023-05-10T22:47:40.397Z,7.15
2023-05-10T22:48:43.002Z,7.50
2023-05-10T22:49:44.836Z,7.90
2023-05-10T22:50:46.537Z,7.13
2023-05-10T22:51:48.267Z,7.37
2023-05-10T22:52:50.048Z,7.13
2023-05-10T22:53:51.822Z,6.25
2023-05-10T22:54:53.597Z,8.70
2023-05-10T22:55:55.565Z,7.05
2023-05-10T22:56:59.487Z,7.63
2023-05-10T22:58:01.239Z,7.68
2023-05-10T22:59:03.040Z,7.50
2023-05-10T23:00:05.403Z,7.15
2023-05-10T23:01:07.153Z,7.28
2023-05-10T23:02:09.570Z,6.63
2023-05-10T23:03:11.432Z,7.88
2023-05-10T23:04:13.194Z,6.95
2023-05-10T23:05:15.079Z,9.95
2023-05-10T23:06:16.858Z,7.80
2023-05-10T23:07:18.638Z,6.82
2023-05-10T23:08:20.368Z,6.57
2023-05-10T23:09:22.157Z,5.45
2023-05-10T23:10:24.241Z,5.00
2023-05-10T23:11:25.947Z,5.00
2023-05-10T23:12:27.713Z,4.70
2023-05-10T23:13:29.497Z,4.85
2023-05-10T23:14:31.339Z,3.85
2023-05-10T23:15:33.165Z,4.85
2023-05-10T23:16:35.241Z,4.68
2023-05-10T23:17:37.170Z,4.55
2023-05-10T23:18:39.030Z,4.80
2023-05-10T23:19:40.821Z,4.65
2023-05-10T23:20:42.568Z,4.78
2023-05-10T23:21:44.311Z,5.15
2023-05-10T23:22:45.992Z,4.57
2023-05-10T23:23:47.783Z,4.40
2023-05-10T23:24:49.592Z,4.75
2023-05-10T23:25:51.340Z,4.40
2023-05-10T23:26:52.987Z,3.97
2023-05-10T23:27:54.689Z,3.95
2023-05-10T23:28:56.431Z,4.38
2023-05-10T23:29:58.412Z,3.67
2023-05-10T23:31:00.291Z,4.03
2023-05-10T23:32:02.654Z,3.75
2023-05-10T23:33:04.360Z,3.97
2023-05-10T23:34:06.186Z,4.20
2023-05-10T23:35:08.707Z,4.05
2023-05-10T23:36:10.458Z,4.30
2023-05-10T23:37:12.222Z,3.78
2023-05-10T23:38:14.026Z,3.55
2023-05-10T23:39:15.738Z,4.10
2023-05-10T23:40:17.784Z,3.78
2023-05-10T23:41:19.738Z,3.60
2023-05-10T23:42:21.635Z,3.70
2023-05-10T23:43:23.440Z,3.73
2023-05-10T23:44:25.164Z,3.75
2023-05-10T23:45:26.968Z,4.07
2023-05-10T23:46:28.751Z,3.95
2023-05-10T23:47:30.554Z,3.85
2023-05-10T23:48:32.364Z,4.20
2023-05-10T23:49:34.090Z,3.83
2023-05-10T23:50:35.771Z,3.95
2023-05-10T23:54:15.455Z,3.43
2023-05-10T23:55:17.521Z,4.07
2023-05-10T23:56:19.277Z,4.00
2023-05-10T23:57:20.968Z,3.53
2023-05-10T23:58:22.678Z,3.88
2023-05-10T23:59:24.475Z,4.43
